sensor_id;sensor_type;location;lat;lon;timestamp;P1;durP1;ratioP1;P2;durP2;ratioP2
82926;SDS011;72788;40.218;44.486;2024-03-02T00:00:38;34.63;;;13.70;;
82926;SDS011;72788;40.218;44.486;2024-03-02T00:03:05;33.95;;;14.02;;
82926;SDS011;72788;40.218;44.486;2024-03-02T00:05:32;33.75;;;13.68;;
82926;SDS011;72788;40.218;44.486;2024-03-02T00:07:58;30.50;;;13.02;;
82926;SDS011;72788;40.218;44.486;2024-03-02T00:10:25;27.13;;;12.07;;
82926;SDS011;72788;40.218;44.486;2024-03-02T00:12:55;27.85;;;12.15;;
82926;SDS011;72788;40.218;44.486;2024-03-02T00:17:53;29.30;;;10.50;;
82926;SDS011;72788;40.218;44.486;2024-03-02T00:20:23;24.35;;;10.30;;
82926;SDS011;72788;40.218;44.486;2024-03-02T00:23:23;28.25;;;9.93;;
82926;SDS011;72788;40.218;44.486;2024-03-02T00:26:03;28.80;;;10.93;;
82926;SDS011;72788;40.218;44.486;2024-03-02T00:28:33;24.13;;;9.95;;
82926;SDS011;72788;40.218;44.486;2024-03-02T00:31:09;27.10;;;11.68;;
82926;SDS011;72788;40.218;44.486;2024-03-02T00:33:43;34.25;;;10.32;;
82926;SDS011;72788;40.218;44.486;2024-03-02T00:36:11;27.83;;;10.70;;
82926;SDS011;72788;40.218;44.486;2024-03-02T00:38:46;29.38;;;11.63;;
82926;SDS011;72788;40.218;44.486;2024-03-02T00:41:27;28.20;;;13.27;;
82926;SDS011;72788;40.218;44.486;2024-03-02T00:44:01;39.17;;;15.13;;
82926;SDS011;72788;40.218;44.486;2024-03-02T00:46:35;35.17;;;13.27;;
82926;SDS011;72788;40.218;44.486;2024-03-02T00:49:03;35.13;;;14.52;;
82926;SDS011;72788;40.218;44.486;2024-03-02T00:51:31;36.40;;;13.50;;
82926;SDS011;72788;40.218;44.486;2024-03-02T00:54:01;39.28;;;13.65;;
82926;SDS011;72788;40.218;44.486;2024-03-02T00:56:29;39.55;;;14.70;;
82926;SDS011;72788;40.218;44.486;2024-03-02T00:58:56;37.05;;;14.77;;
82926;SDS011;72788;40.218;44.486;2024-03-02T01:01:21;32.00;;;14.38;;
82926;SDS011;72788;40.218;44.486;2024-03-02T01:03:48;37.72;;;15.02;;
82926;SDS011;72788;40.218;44.486;2024-03-02T01:06:14;39.15;;;15.10;;
82926;SDS011;72788;40.218;44.486;2024-03-02T01:08:40;36.72;;;15.10;;
82926;SDS011;72788;40.218;44.486;2024-03-02T01:11:06;40.00;;;16.60;;
82926;SDS011;72788;40.218;44.486;2024-03-02T01:13:32;39.45;;;16.38;;
82926;SDS011;72788;40.218;44.486;2024-03-02T01:15:58;37.60;;;16.13;;
82926;SDS011;72788;40.218;44.486;2024-03-02T01:18:24;37.13;;;15.55;;
82926;SDS011;72788;40.218;44.486;2024-03-02T01:20:50;41.50;;;15.18;;
82926;SDS011;72788;40.218;44.486;2024-03-02T01:23:24;40.83;;;16.17;;
82926;SDS011;72788;40.218;44.486;2024-03-02T01:25:50;38.08;;;13.35;;
82926;SDS011;72788;40.218;44.486;2024-03-02T01:28:17;40.28;;;14.93;;
82926;SDS011;72788;40.218;44.486;2024-03-02T01:30:44;33.78;;;15.05;;
82926;SDS011;72788;40.218;44.486;2024-03-02T01:33:10;39.08;;;15.88;;
82926;SDS011;72788;40.218;44.486;2024-03-02T01:35:36;31.10;;;12.80;;
82926;SDS011;72788;40.218;44.486;2024-03-02T01:38:02;32.03;;;14.52;;
82926;SDS011;72788;40.218;44.486;2024-03-02T01:40:28;41.35;;;16.80;;
82926;SDS011;72788;40.218;44.486;2024-03-02T01:42:54;34.45;;;14.68;;
82926;SDS011;72788;40.218;44.486;2024-03-02T01:45:20;35.20;;;13.60;;
82926;SDS011;72788;40.218;44.486;2024-03-02T01:47:47;29.15;;;13.75;;
82926;SDS011;72788;40.218;44.486;2024-03-02T01:50:13;38.95;;;14.38;;
82926;SDS011;72788;40.218;44.486;2024-03-02T01:52:39;33.05;;;13.63;;
82926;SDS011;72788;40.218;44.486;2024-03-02T01:55:05;50.65;;;15.45;;
82926;SDS011;72788;40.218;44.486;2024-03-02T01:57:32;33.00;;;13.50;;
82926;SDS011;72788;40.218;44.486;2024-03-02T01:59:59;37.88;;;13.68;;
82926;SDS011;72788;40.218;44.486;2024-03-02T02:02:25;34.72;;;13.57;;
82926;SDS011;72788;40.218;44.486;2024-03-02T02:04:51;29.60;;;14.30;;
82926;SDS011;72788;40.218;44.486;2024-03-02T02:07:17;31.27;;;14.00;;
82926;SDS011;72788;40.218;44.486;2024-03-02T02:09:43;32.63;;;13.45;;
82926;SDS011;72788;40.218;44.486;2024-03-02T02:12:09;39.25;;;16.23;;
82926;SDS011;72788;40.218;44.486;2024-03-02T02:14:35;39.30;;;14.65;;
82926;SDS011;72788;40.218;44.486;2024-03-02T02:17:01;33.78;;;14.23;;
82926;SDS011;72788;40.218;44.486;2024-03-02T02:19:27;31.80;;;14.27;;
82926;SDS011;72788;40.218;44.486;2024-03-02T02:21:53;40.40;;;14.30;;
82926;SDS011;72788;40.218;44.486;2024-03-02T02:24:19;33.83;;;13.65;;
82926;SDS011;72788;40.218;44.486;2024-03-02T02:26:45;37.70;;;13.70;;
82926;SDS011;72788;40.218;44.486;2024-03-02T02:29:11;32.58;;;12.77;;
82926;SDS011;72788;40.218;44.486;2024-03-02T02:31:40;40.25;;;13.23;;
82926;SDS011;72788;40.218;44.486;2024-03-02T02:34:07;30.02;;;12.48;;
82926;SDS011;72788;40.218;44.486;2024-03-02T02:36:34;34.35;;;13.15;;
82926;SDS011;72788;40.218;44.486;2024-03-02T02:39:04;35.55;;;13.55;;
82926;SDS011;72788;40.218;44.486;2024-03-02T02:41:32;29.80;;;13.00;;
82926;SDS011;72788;40.218;44.486;2024-03-02T02:43:58;27.70;;;12.73;;
82926;SDS011;72788;40.218;44.486;2024-03-02T02:46:24;30.77;;;11.50;;
82926;SDS011;72788;40.218;44.486;2024-03-02T02:48:49;32.78;;;13.27;;
82926;SDS011;72788;40.218;44.486;2024-03-02T02:51:16;31.10;;;12.00;;
82926;SDS011;72788;40.218;44.486;2024-03-02T02:53:42;30.52;;;12.77;;
82926;SDS011;72788;40.218;44.486;2024-03-02T02:56:08;33.53;;;12.82;;
82926;SDS011;72788;40.218;44.486;2024-03-02T02:58:34;28.70;;;13.82;;
82926;SDS011;72788;40.218;44.486;2024-03-02T03:01:00;32.95;;;12.82;;
82926;SDS011;72788;40.218;44.486;2024-03-02T03:03:26;29.58;;;12.63;;
82926;SDS011;72788;40.218;44.486;2024-03-02T03:05:52;30.35;;;13.13;;
82926;SDS011;72788;40.218;44.486;2024-03-02T03:08:17;28.63;;;13.70;;
82926;SDS011;72788;40.218;44.486;2024-03-02T03:10:43;30.77;;;12.73;;
82926;SDS011;72788;40.218;44.486;2024-03-02T03:13:09;36.67;;;14.25;;
82926;SDS011;72788;40.218;44.486;2024-03-02T03:15:35;39.08;;;13.00;;
82926;SDS011;72788;40.218;44.486;2024-03-02T03:18:02;29.33;;;11.45;;
82926;SDS011;72788;40.218;44.486;2024-03-02T03:20:29;30.17;;;13.02;;
82926;SDS011;72788;40.218;44.486;2024-03-02T03:22:55;36.85;;;14.13;;
82926;SDS011;72788;40.218;44.486;2024-03-02T03:25:21;33.38;;;12.38;;
82926;SDS011;72788;40.218;44.486;2024-03-02T03:27:47;30.33;;;13.10;;
82926;SDS011;72788;40.218;44.486;2024-03-02T03:30:13;27.67;;;11.38;;
82926;SDS011;72788;40.218;44.486;2024-03-02T03:32:38;30.33;;;11.55;;
82926;SDS011;72788;40.218;44.486;2024-03-02T03:35:04;29.35;;;12.27;;
82926;SDS011;72788;40.218;44.486;2024-03-02T03:37:31;26.88;;;11.20;;
82926;SDS011;72788;40.218;44.486;2024-03-02T03:39:58;27.23;;;11.65;;
82926;SDS011;72788;40.218;44.486;2024-03-02T03:42:28;29.50;;;12.27;;
82926;SDS011;72788;40.218;44.486;2024-03-02T03:44:53;27.77;;;11.93;;
82926;SDS011;72788;40.218;44.486;2024-03-02T03:47:19;28.65;;;13.00;;
82926;SDS011;72788;40.218;44.486;2024-03-02T03:49:45;40.13;;;15.70;;
82926;SDS011;72788;40.218;44.486;2024-03-02T03:52:11;41.25;;;16.80;;
82926;SDS011;72788;40.218;44.486;2024-03-02T03:54:37;42.47;;;15.48;;
82926;SDS011;72788;40.218;44.486;2024-03-02T03:57:03;41.90;;;16.70;;
82926;SDS011;72788;40.218;44.486;2024-03-02T03:59:29;40.92;;;16.45;;
82926;SDS011;72788;40.218;44.486;2024-03-02T04:01:55;39.35;;;14.43;;
82926;SDS011;72788;40.218;44.486;2024-03-02T04:04:21;40.83;;;15.07;;
82926;SDS011;72788;40.218;44.486;2024-03-02T04:06:47;38.80;;;15.05;;
82926;SDS011;72788;40.218;44.486;2024-03-02T04:09:13;33.10;;;13.45;;
82926;SDS011;72788;40.218;44.486;2024-03-02T04:11:38;36.58;;;13.35;;
82926;SDS011;72788;40.218;44.486;2024-03-02T04:14:04;32.10;;;14.27;;
82926;SDS011;72788;40.218;44.486;2024-03-02T04:16:31;39.72;;;14.77;;
82926;SDS011;72788;40.218;44.486;2024-03-02T04:18:57;34.03;;;14.05;;
82926;SDS011;72788;40.218;44.486;2024-03-02T04:21:22;31.85;;;12.90;;
82926;SDS011;72788;40.218;44.486;2024-03-02T04:23:48;31.55;;;12.95;;
82926;SDS011;72788;40.218;44.486;2024-03-02T04:26:14;41.72;;;14.70;;
82926;SDS011;72788;40.218;44.486;2024-03-02T04:28:40;31.55;;;13.07;;
82926;SDS011;72788;40.218;44.486;2024-03-02T04:31:06;39.13;;;13.05;;
82926;SDS011;72788;40.218;44.486;2024-03-02T04:33:31;35.53;;;14.77;;
82926;SDS011;72788;40.218;44.486;2024-03-02T04:35:57;33.17;;;12.68;;
82926;SDS011;72788;40.218;44.486;2024-03-02T04:38:22;30.88;;;12.77;;
82926;SDS011;72788;40.218;44.486;2024-03-02T04:40:48;38.42;;;14.35;;
82926;SDS011;72788;40.218;44.486;2024-03-02T04:43:14;38.75;;;12.48;;
82926;SDS011;72788;40.218;44.486;2024-03-02T04:45:42;30.48;;;12.90;;
82926;SDS011;72788;40.218;44.486;2024-03-02T04:48:08;28.90;;;12.90;;
82926;SDS011;72788;40.218;44.486;2024-03-02T04:50:33;35.25;;;15.60;;
82926;SDS011;72788;40.218;44.486;2024-03-02T04:52:59;38.80;;;12.90;;
82926;SDS011;72788;40.218;44.486;2024-03-02T04:55:24;30.35;;;14.32;;
82926;SDS011;72788;40.218;44.486;2024-03-02T04:58:10;29.52;;;12.63;;
82926;SDS011;72788;40.218;44.486;2024-03-02T05:00:36;30.90;;;14.50;;
82926;SDS011;72788;40.218;44.486;2024-03-02T05:03:02;32.60;;;13.85;;
82926;SDS011;72788;40.218;44.486;2024-03-02T05:05:28;36.85;;;12.70;;
82926;SDS011;72788;40.218;44.486;2024-03-02T05:07:54;32.35;;;12.52;;
82926;SDS011;72788;40.218;44.486;2024-03-02T05:10:20;28.17;;;11.85;;
82926;SDS011;72788;40.218;44.486;2024-03-02T05:12:45;36.05;;;13.98;;
82926;SDS011;72788;40.218;44.486;2024-03-02T05:15:12;29.83;;;13.23;;
82926;SDS011;72788;40.218;44.486;2024-03-02T05:17:39;35.17;;;14.05;;
82926;SDS011;72788;40.218;44.486;2024-03-02T05:20:08;37.90;;;13.68;;
82926;SDS011;72788;40.218;44.486;2024-03-02T05:22:34;29.33;;;12.65;;
82926;SDS011;72788;40.218;44.486;2024-03-02T05:25:01;34.85;;;12.38;;
82926;SDS011;72788;40.218;44.486;2024-03-02T05:27:27;32.45;;;13.20;;
82926;SDS011;72788;40.218;44.486;2024-03-02T05:29:53;26.73;;;12.55;;
82926;SDS011;72788;40.218;44.486;2024-03-02T05:32:18;32.55;;;13.00;;
82926;SDS011;72788;40.218;44.486;2024-03-02T05:34:44;41.88;;;14.20;;
82926;SDS011;72788;40.218;44.486;2024-03-02T05:37:10;37.00;;;14.25;;
82926;SDS011;72788;40.218;44.486;2024-03-02T05:39:36;38.58;;;13.85;;
82926;SDS011;72788;40.218;44.486;2024-03-02T05:42:02;37.67;;;14.30;;
82926;SDS011;72788;40.218;44.486;2024-03-02T05:44:28;31.08;;;14.30;;
82926;SDS011;72788;40.218;44.486;2024-03-02T05:46:54;43.58;;;13.85;;
82926;SDS011;72788;40.218;44.486;2024-03-02T05:49:20;31.92;;;13.45;;
82926;SDS011;72788;40.218;44.486;2024-03-02T05:51:45;35.85;;;14.85;;
82926;SDS011;72788;40.218;44.486;2024-03-02T05:54:11;38.53;;;15.45;;
82926;SDS011;72788;40.218;44.486;2024-03-02T05:56:37;31.73;;;12.38;;
82926;SDS011;72788;40.218;44.486;2024-03-02T05:59:03;39.50;;;15.15;;
82926;SDS011;72788;40.218;44.486;2024-03-02T06:01:44;35.13;;;13.77;;
82926;SDS011;72788;40.218;44.486;2024-03-02T06:04:12;36.70;;;13.05;;
82926;SDS011;72788;40.218;44.486;2024-03-02T06:06:38;49.80;;;14.38;;
82926;SDS011;72788;40.218;44.486;2024-03-02T06:09:05;39.60;;;13.02;;
82926;SDS011;72788;40.218;44.486;2024-03-02T06:11:37;34.90;;;12.75;;
82926;SDS011;72788;40.218;44.486;2024-03-02T06:14:04;31.45;;;11.68;;
82926;SDS011;72788;40.218;44.486;2024-03-02T06:16:31;33.80;;;11.75;;
82926;SDS011;72788;40.218;44.486;2024-03-02T06:18:57;33.80;;;12.98;;
82926;SDS011;72788;40.218;44.486;2024-03-02T06:21:29;25.30;;;11.50;;
82926;SDS011;72788;40.218;44.486;2024-03-02T06:23:55;30.15;;;10.35;;
82926;SDS011;72788;40.218;44.486;2024-03-02T06:26:21;30.83;;;12.80;;
82926;SDS011;72788;40.218;44.486;2024-03-02T06:28:47;26.65;;;11.18;;
82926;SDS011;72788;40.218;44.486;2024-03-02T06:31:13;27.83;;;10.43;;
82926;SDS011;72788;40.218;44.486;2024-03-02T06:33:38;32.00;;;11.90;;
82926;SDS011;72788;40.218;44.486;2024-03-02T06:36:05;26.48;;;10.95;;
82926;SDS011;72788;40.218;44.486;2024-03-02T06:38:33;35.92;;;11.93;;
82926;SDS011;72788;40.218;44.486;2024-03-02T06:40:59;27.60;;;10.93;;
82926;SDS011;72788;40.218;44.486;2024-03-02T06:43:25;38.80;;;13.13;;
82926;SDS011;72788;40.218;44.486;2024-03-02T06:45:51;35.88;;;13.90;;
82926;SDS011;72788;40.218;44.486;2024-03-02T06:48:17;35.30;;;15.25;;
82926;SDS011;72788;40.218;44.486;2024-03-02T06:50:48;28.10;;;12.55;;
82926;SDS011;72788;40.218;44.486;2024-03-02T06:53:15;39.50;;;12.35;;
82926;SDS011;72788;40.218;44.486;2024-03-02T06:55:44;38.88;;;15.20;;
82926;SDS011;72788;40.218;44.486;2024-03-02T06:58:14;41.22;;;15.57;;
82926;SDS011;72788;40.218;44.486;2024-03-02T07:00:42;63.53;;;24.00;;
82926;SDS011;72788;40.218;44.486;2024-03-02T07:03:09;64.82;;;25.40;;
82926;SDS011;72788;40.218;44.486;2024-03-02T07:05:35;60.65;;;23.08;;
82926;SDS011;72788;40.218;44.486;2024-03-02T07:08:01;102.05;;;33.05;;
82926;SDS011;72788;40.218;44.486;2024-03-02T07:10:27;56.90;;;23.17;;
82926;SDS011;72788;40.218;44.486;2024-03-02T07:12:53;61.33;;;23.33;;
82926;SDS011;72788;40.218;44.486;2024-03-02T07:15:19;63.50;;;25.25;;
82926;SDS011;72788;40.218;44.486;2024-03-02T07:17:53;56.55;;;22.73;;
82926;SDS011;72788;40.218;44.486;2024-03-02T07:20:19;63.83;;;23.92;;
82926;SDS011;72788;40.218;44.486;2024-03-02T07:22:45;71.20;;;25.45;;
82926;SDS011;72788;40.218;44.486;2024-03-02T07:25:11;67.93;;;26.80;;
82926;SDS011;72788;40.218;44.486;2024-03-02T07:27:38;75.20;;;27.38;;
82926;SDS011;72788;40.218;44.486;2024-03-02T07:30:04;64.47;;;22.42;;
82926;SDS011;72788;40.218;44.486;2024-03-02T07:32:30;69.72;;;23.00;;
82926;SDS011;72788;40.218;44.486;2024-03-02T07:34:56;65.25;;;22.98;;
82926;SDS011;72788;40.218;44.486;2024-03-02T07:37:22;64.13;;;21.13;;
82926;SDS011;72788;40.218;44.486;2024-03-02T07:39:48;63.40;;;20.20;;
82926;SDS011;72788;40.218;44.486;2024-03-02T07:42:14;57.90;;;19.60;;
82926;SDS011;72788;40.218;44.486;2024-03-02T07:44:41;53.70;;;21.23;;
82926;SDS011;72788;40.218;44.486;2024-03-02T07:47:07;54.90;;;23.00;;
82926;SDS011;72788;40.218;44.486;2024-03-02T07:49:33;81.57;;;25.15;;
82926;SDS011;72788;40.218;44.486;2024-03-02T07:51:58;49.10;;;19.92;;
82926;SDS011;72788;40.218;44.486;2024-03-02T07:54:24;56.83;;;20.55;;
82926;SDS011;72788;40.218;44.486;2024-03-02T07:56:49;48.33;;;20.33;;
82926;SDS011;72788;40.218;44.486;2024-03-02T07:59:15;46.33;;;17.88;;
82926;SDS011;72788;40.218;44.486;2024-03-02T08:01:41;46.45;;;18.27;;
82926;SDS011;72788;40.218;44.486;2024-03-02T08:04:07;56.33;;;20.13;;
82926;SDS011;72788;40.218;44.486;2024-03-02T08:06:32;52.00;;;20.08;;
82926;SDS011;72788;40.218;44.486;2024-03-02T08:08:59;68.32;;;27.13;;
82926;SDS011;72788;40.218;44.486;2024-03-02T08:11:25;87.65;;;35.83;;
82926;SDS011;72788;40.218;44.486;2024-03-02T08:13:56;155.85;;;47.95;;
82926;SDS011;72788;40.218;44.486;2024-03-02T08:16:24;149.88;;;48.78;;
82926;SDS011;72788;40.218;44.486;2024-03-02T08:18:50;129.73;;;45.75;;
82926;SDS011;72788;40.218;44.486;2024-03-02T08:21:17;128.60;;;42.85;;
82926;SDS011;72788;40.218;44.486;2024-03-02T08:23:43;119.95;;;37.03;;
82926;SDS011;72788;40.218;44.486;2024-03-02T08:26:09;101.47;;;35.83;;
82926;SDS011;72788;40.218;44.486;2024-03-02T08:28:35;101.50;;;32.17;;
82926;SDS011;72788;40.218;44.486;2024-03-02T08:31:05;78.18;;;30.10;;
82926;SDS011;72788;40.218;44.486;2024-03-02T08:33:32;73.93;;;26.08;;
82926;SDS011;72788;40.218;44.486;2024-03-02T08:35:58;87.45;;;30.20;;
82926;SDS011;72788;40.218;44.486;2024-03-02T08:38:24;52.55;;;21.00;;
82926;SDS011;72788;40.218;44.486;2024-03-02T08:40:50;55.22;;;21.38;;
82926;SDS011;72788;40.218;44.486;2024-03-02T08:43:16;53.05;;;21.05;;
82926;SDS011;72788;40.218;44.486;2024-03-02T08:45:42;57.55;;;19.27;;
82926;SDS011;72788;40.218;44.486;2024-03-02T08:48:08;48.33;;;17.10;;
82926;SDS011;72788;40.218;44.486;2024-03-02T08:50:34;38.38;;;13.77;;
82926;SDS011;72788;40.218;44.486;2024-03-02T08:53:01;33.05;;;12.05;;
82926;SDS011;72788;40.218;44.486;2024-03-02T08:55:27;30.83;;;11.15;;
82926;SDS011;72788;40.218;44.486;2024-03-02T08:57:52;27.80;;;11.60;;
82926;SDS011;72788;40.218;44.486;2024-03-02T09:00:18;25.95;;;12.32;;
82926;SDS011;72788;40.218;44.486;2024-03-02T09:02:44;24.45;;;10.35;;
82926;SDS011;72788;40.218;44.486;2024-03-02T09:05:10;27.88;;;12.10;;
82926;SDS011;72788;40.218;44.486;2024-03-02T09:07:36;25.48;;;11.45;;
82926;SDS011;72788;40.218;44.486;2024-03-02T09:10:06;35.97;;;13.32;;
82926;SDS011;72788;40.218;44.486;2024-03-02T09:12:33;26.60;;;11.77;;
82926;SDS011;72788;40.218;44.486;2024-03-02T09:14:59;27.00;;;11.35;;
82926;SDS011;72788;40.218;44.486;2024-03-02T09:17:26;27.23;;;11.55;;
82926;SDS011;72788;40.218;44.486;2024-03-02T09:19:52;28.52;;;11.45;;
82926;SDS011;72788;40.218;44.486;2024-03-02T09:22:21;30.55;;;11.63;;
82926;SDS011;72788;40.218;44.486;2024-03-02T09:24:47;35.83;;;11.93;;
82926;SDS011;72788;40.218;44.486;2024-03-02T09:27:12;31.42;;;12.55;;
82926;SDS011;72788;40.218;44.486;2024-03-02T09:29:38;28.73;;;12.60;;
82926;SDS011;72788;40.218;44.486;2024-03-02T09:32:04;34.15;;;13.10;;
82926;SDS011;72788;40.218;44.486;2024-03-02T09:34:31;38.38;;;12.35;;
82926;SDS011;72788;40.218;44.486;2024-03-02T09:36:57;34.33;;;13.25;;
82926;SDS011;72788;40.218;44.486;2024-03-02T09:39:23;33.95;;;13.00;;
82926;SDS011;72788;40.218;44.486;2024-03-02T09:41:50;33.97;;;13.88;;
82926;SDS011;72788;40.218;44.486;2024-03-02T09:44:17;32.55;;;12.82;;
82926;SDS011;72788;40.218;44.486;2024-03-02T09:46:43;39.00;;;14.18;;
82926;SDS011;72788;40.218;44.486;2024-03-02T09:49:12;31.65;;;13.27;;
82926;SDS011;72788;40.218;44.486;2024-03-02T09:51:37;43.95;;;14.15;;
82926;SDS011;72788;40.218;44.486;2024-03-02T09:54:04;31.25;;;12.38;;
82926;SDS011;72788;40.218;44.486;2024-03-02T09:56:32;32.13;;;11.95;;
82926;SDS011;72788;40.218;44.486;2024-03-02T09:58:58;25.92;;;11.57;;
82926;SDS011;72788;40.218;44.486;2024-03-02T10:01:24;30.55;;;12.43;;
82926;SDS011;72788;40.218;44.486;2024-03-02T10:03:50;27.33;;;11.02;;
82926;SDS011;72788;40.218;44.486;2024-03-02T10:06:24;26.45;;;11.60;;
82926;SDS011;72788;40.218;44.486;2024-03-02T10:08:50;34.35;;;13.68;;
82926;SDS011;72788;40.218;44.486;2024-03-02T10:14:10;33.08;;;13.60;;
82926;SDS011;72788;40.218;44.486;2024-03-02T10:16:38;33.08;;;13.63;;
82926;SDS011;72788;40.218;44.486;2024-03-02T10:21:47;26.10;;;11.43;;
82926;SDS011;72788;40.218;44.486;2024-03-02T10:24:20;26.05;;;12.30;;
82926;SDS011;72788;40.218;44.486;2024-03-02T10:26:48;31.58;;;12.45;;
82926;SDS011;72788;40.218;44.486;2024-03-02T10:29:13;27.35;;;13.65;;
82926;SDS011;72788;40.218;44.486;2024-03-02T10:31:43;34.50;;;13.55;;
82926;SDS011;72788;40.218;44.486;2024-03-02T10:34:11;25.75;;;12.35;;
82926;SDS011;72788;40.218;44.486;2024-03-02T10:36:42;32.67;;;12.50;;
82926;SDS011;72788;40.218;44.486;2024-03-02T10:39:10;28.98;;;11.30;;
82926;SDS011;72788;40.218;44.486;2024-03-02T10:41:38;30.55;;;12.25;;
82926;SDS011;72788;40.218;44.486;2024-03-02T10:44:05;35.63;;;13.05;;
82926;SDS011;72788;40.218;44.486;2024-03-02T10:46:32;32.50;;;13.45;;
82926;SDS011;72788;40.218;44.486;2024-03-02T10:48:59;30.95;;;13.30;;
82926;SDS011;72788;40.218;44.486;2024-03-02T10:51:26;37.75;;;14.65;;
82926;SDS011;72788;40.218;44.486;2024-03-02T10:53:56;36.30;;;12.77;;
82926;SDS011;72788;40.218;44.486;2024-03-02T10:59:37;35.33;;;12.45;;
82926;SDS011;72788;40.218;44.486;2024-03-02T11:01:50;53.13;;;28.92;;
82926;SDS011;72788;40.218;44.486;2024-03-02T11:04:18;31.48;;;12.80;;
82926;SDS011;72788;40.218;44.486;2024-03-02T11:06:48;30.50;;;12.43;;
82926;SDS011;72788;40.218;44.486;2024-03-02T11:09:15;28.15;;;11.63;;
82926;SDS011;72788;40.218;44.486;2024-03-02T11:11:44;25.50;;;11.82;;
82926;SDS011;72788;40.218;44.486;2024-03-02T11:14:16;28.67;;;11.20;;
82926;SDS011;72788;40.218;44.486;2024-03-02T11:16:45;30.38;;;13.63;;
82926;SDS011;72788;40.218;44.486;2024-03-02T11:19:12;33.13;;;13.82;;
82926;SDS011;72788;40.218;44.486;2024-03-02T11:21:39;23.83;;;11.50;;
82926;SDS011;72788;40.218;44.486;2024-03-02T11:26:49;29.65;;;12.90;;
82926;SDS011;72788;40.218;44.486;2024-03-02T11:32:00;19.33;;;9.52;;
82926;SDS011;72788;40.218;44.486;2024-03-02T11:34:30;32.53;;;12.90;;
82926;SDS011;72788;40.218;44.486;2024-03-02T11:36:57;25.35;;;11.32;;
82926;SDS011;72788;40.218;44.486;2024-03-02T11:39:26;26.67;;;10.80;;
82926;SDS011;72788;40.218;44.486;2024-03-02T11:41:53;27.38;;;13.75;;
82926;SDS011;72788;40.218;44.486;2024-03-02T11:44:19;33.10;;;11.65;;
82926;SDS011;72788;40.218;44.486;2024-03-02T11:46:45;29.58;;;11.40;;
82926;SDS011;72788;40.218;44.486;2024-03-02T11:49:20;23.05;;;11.52;;
82926;SDS011;72788;40.218;44.486;2024-03-02T11:52:06;34.03;;;11.70;;
82926;SDS011;72788;40.218;44.486;2024-03-02T11:54:34;32.03;;;14.73;;
82926;SDS011;72788;40.218;44.486;2024-03-02T11:57:04;33.47;;;14.27;;
82926;SDS011;72788;40.218;44.486;2024-03-02T11:59:31;29.42;;;11.25;;
82926;SDS011;72788;40.218;44.486;2024-03-02T12:01:57;26.17;;;11.98;;
82926;SDS011;72788;40.218;44.486;2024-03-02T12:04:24;25.98;;;10.82;;
82926;SDS011;72788;40.218;44.486;2024-03-02T12:06:58;27.10;;;10.77;;
82926;SDS011;72788;40.218;44.486;2024-03-02T12:09:28;28.45;;;11.65;;
82926;SDS011;72788;40.218;44.486;2024-03-02T12:12:28;35.28;;;12.88;;
82926;SDS011;72788;40.218;44.486;2024-03-02T12:14:51;21.25;;;9.98;;
82926;SDS011;72788;40.218;44.486;2024-03-02T12:17:18;29.45;;;11.68;;
82926;SDS011;72788;40.218;44.486;2024-03-02T12:19:44;33.88;;;14.77;;
82926;SDS011;72788;40.218;44.486;2024-03-02T12:22:11;29.48;;;12.95;;
82926;SDS011;72788;40.218;44.486;2024-03-02T12:24:36;34.20;;;15.07;;
82926;SDS011;72788;40.218;44.486;2024-03-02T12:27:03;35.42;;;12.68;;
82926;SDS011;72788;40.218;44.486;2024-03-02T12:29:29;29.15;;;12.45;;
82926;SDS011;72788;40.218;44.486;2024-03-02T12:31:55;34.30;;;14.45;;
82926;SDS011;72788;40.218;44.486;2024-03-02T12:34:21;43.50;;;15.65;;
82926;SDS011;72788;40.218;44.486;2024-03-02T12:36:48;33.03;;;13.63;;
82926;SDS011;72788;40.218;44.486;2024-03-02T12:39:18;31.85;;;13.05;;
82926;SDS011;72788;40.218;44.486;2024-03-02T12:41:44;25.63;;;11.65;;
82926;SDS011;72788;40.218;44.486;2024-03-02T12:44:11;38.72;;;16.02;;
82926;SDS011;72788;40.218;44.486;2024-03-02T12:46:37;29.90;;;14.82;;
82926;SDS011;72788;40.218;44.486;2024-03-02T12:49:10;48.40;;;15.10;;
82926;SDS011;72788;40.218;44.486;2024-03-02T12:51:40;36.05;;;15.45;;
82926;SDS011;72788;40.218;44.486;2024-03-02T12:54:06;36.47;;;16.20;;
82926;SDS011;72788;40.218;44.486;2024-03-02T12:56:33;37.55;;;17.13;;
82926;SDS011;72788;40.218;44.486;2024-03-02T12:59:00;36.53;;;16.33;;
82926;SDS011;72788;40.218;44.486;2024-03-02T13:01:26;37.83;;;18.15;;
82926;SDS011;72788;40.218;44.486;2024-03-02T13:03:55;35.10;;;17.48;;
82926;SDS011;72788;40.218;44.486;2024-03-02T13:06:21;37.58;;;18.50;;
82926;SDS011;72788;40.218;44.486;2024-03-02T13:08:53;41.10;;;17.85;;
82926;SDS011;72788;40.218;44.486;2024-03-02T13:11:20;27.38;;;13.18;;
82926;SDS011;72788;40.218;44.486;2024-03-02T13:13:47;31.27;;;14.75;;
82926;SDS011;72788;40.218;44.486;2024-03-02T13:16:13;29.45;;;15.13;;
82926;SDS011;72788;40.218;44.486;2024-03-02T13:18:41;33.58;;;13.80;;
82926;SDS011;72788;40.218;44.486;2024-03-02T13:21:07;35.10;;;15.38;;
82926;SDS011;72788;40.218;44.486;2024-03-02T13:23:33;30.63;;;12.52;;
82926;SDS011;72788;40.218;44.486;2024-03-02T13:25:59;34.45;;;15.32;;
82926;SDS011;72788;40.218;44.486;2024-03-02T13:28:25;46.05;;;16.30;;
82926;SDS011;72788;40.218;44.486;2024-03-02T13:30:51;33.45;;;13.13;;
82926;SDS011;72788;40.218;44.486;2024-03-02T13:33:17;30.38;;;14.10;;
82926;SDS011;72788;40.218;44.486;2024-03-02T13:35:51;30.80;;;14.30;;
82926;SDS011;72788;40.218;44.486;2024-03-02T13:38:20;35.78;;;16.08;;
82926;SDS011;72788;40.218;44.486;2024-03-02T13:40:46;22.67;;;11.48;;
82926;SDS011;72788;40.218;44.486;2024-03-02T13:43:17;59.30;;;24.40;;
82926;SDS011;72788;40.218;44.486;2024-03-02T13:45:44;45.90;;;18.40;;
82926;SDS011;72788;40.218;44.486;2024-03-02T13:48:10;46.83;;;19.88;;
82926;SDS011;72788;40.218;44.486;2024-03-02T13:50:35;36.90;;;16.83;;
82926;SDS011;72788;40.218;44.486;2024-03-02T13:53:01;32.92;;;15.00;;
82926;SDS011;72788;40.218;44.486;2024-03-02T13:55:28;48.40;;;15.38;;
82926;SDS011;72788;40.218;44.486;2024-03-02T13:57:54;33.95;;;13.60;;
82926;SDS011;72788;40.218;44.486;2024-03-02T14:00:20;32.45;;;14.02;;
82926;SDS011;72788;40.218;44.486;2024-03-02T14:02:46;34.13;;;13.07;;
82926;SDS011;72788;40.218;44.486;2024-03-02T14:05:14;36.90;;;13.15;;
82926;SDS011;72788;40.218;44.486;2024-03-02T14:07:43;33.42;;;13.40;;
82926;SDS011;72788;40.218;44.486;2024-03-02T14:10:09;34.15;;;13.63;;
82926;SDS011;72788;40.218;44.486;2024-03-02T14:12:36;26.70;;;12.68;;
82926;SDS011;72788;40.218;44.486;2024-03-02T14:15:01;29.70;;;13.10;;
82926;SDS011;72788;40.218;44.486;2024-03-02T14:17:28;29.00;;;14.07;;
82926;SDS011;72788;40.218;44.486;2024-03-02T14:19:54;29.15;;;14.05;;
82926;SDS011;72788;40.218;44.486;2024-03-02T14:22:20;36.50;;;13.40;;
82926;SDS011;72788;40.218;44.486;2024-03-02T14:24:46;29.10;;;12.82;;